aviador You're here:

KHBI Decoded Metar

ASHEBORO MUNI in NC, USA
Report Time2017-03-23 02:05:00
UTC Time2017-03-23 02:18:25
Flight Rules vfr VFR
Wind060° at 03 kt
W.Decomp.*RWY 03: 2.4 kt HW 1.8 kt RCW
W.Rank060° ranks 23
Current wind is below 060° avg. (4.5)
Visibility9999 m
Phenomena:N/A
Clouds:N/A
Expected CloudBase > 7,600 ft AGL from Temp-Dew spread
CeilingNone
Temp10°C (ISA -4)
Dew Point-9°C (25% RH)
AAT5.9°C
QNH1028 hPa
Density Alt-223 ft
Elevation673 ft
Report Wrong Elevation
Raw Report
KHBI 230205Z AUTO 06003KT 10SM CLR 10/M09 A3036 RMK AO2
T01001088=

Extra information for KHBI:More info

Metar Taf Metar & Taf Last 4 Metars F.Rules Stats Wind Profile Meteogram Temp Stats Airport Information Weather charts Add Link Nearby VenuesMetar ALERT Operation Metar Decoded Social comments

AIRNAV info for KHBI